Clinchfield, GA

8:40 PM EDT on August 01, 2015 (GMT -0400)
Avington Glenn | | Change Station
CLOSE
Current Station
Personal Weather Station
Location: Perry, GA
Elevation: 335 ft
Nearby Weather Stations

Elev 335 ft 32.47 °N, 83.68 °W | Updated 7 minutes ago

Clear
Clear
81.9 °F
Feels Like 91 °F
N
0.0
Wind Variable Wind from ENE

Today
High -- | Low -- °F
--% Chance of Precip.
Yesterday
High -- | Low -- °F
Precip. -- in
6:49 AM 8:32 PM
Waning Gibbous, 96% visible
Pressure 29.87 in
Visibility 10.0 miles
Clouds Clear
Heat Index 91 °F
Dew Point 79 °F
Humidity 90%
Rainfall 0.58 in
Snow Depth Not available.
UV 0 out of 12
Pollen 4.20 out of 12
Air Quality Not available.
Flu Activity Not available.
METAR KWRB 012358Z AUTO 09004KT 10SM CLR 30/24 A2987 RMK AO2 SLP115 60005 T02980239 10339 20271 55000

More Conditions Fewer Conditions

Pressure 29.87 in
Visibility 10.0 miles
Clouds Clear
Heat Index 91 °F
Dew Point 79 °F
Humidity 90%
Rainfall 0.58 in
Snow Depth Not available.
UV 0 out of 12
Pollen 4.20 out of 12
Air Quality Not available.
Flu Activity Not available.
METAR KWRB 012358Z AUTO 09004KT 10SM CLR 30/24 A2987 RMK AO2 SLP115 60005 T02980239 10339 20271 55000

More Conditions Fewer Conditions

10-Day Weather Forecast

×

Almanac

Astronomy

Aug. 01, 2015 Rise Set
Actual Time
Civil Twilight
Nautical Twilight
Astronomical Twilight
Moon
Length of Visible Light
Length of Day
Tomorrow will be .
, % of the Moon is Illuminated

Today's Extremes

State Highs State Lows

Community

WunderPhotos

Upload Photos

1,843,102 photos uploaded!

WunderBlogs® & News

Nearby

Air Quality

  Air Quality AQ Index Pollutant
Not available.

Snow Depth

Station Depth Elevation

Earthquake Activity

City Distance Mag. Time & Date
Minimum magnitude displayed is 2.5.

Coastal Water Temperatures

Place Temperature

Stations

Nearby Weather Stations

Station Location Temp. Windchill Dew Point Humidity Wind Precip. Elev Updated Type